createdAt,value
2022-10-25T00:03:48.268Z,10.90
2022-10-25T00:08:18.959Z,10.80
2022-10-25T00:12:23.956Z,10.70
2022-10-25T00:16:34.716Z,10.70
2022-10-25T00:20:37.462Z,10.70
2022-10-25T00:24:39.359Z,10.70
2022-10-25T00:28:42.775Z,10.70
2022-10-25T00:33:15.044Z,10.70
2022-10-25T00:37:38.901Z,10.70
2022-10-25T00:42:32.988Z,10.70
2022-10-25T00:47:26.797Z,10.70
2022-10-25T00:51:37.621Z,10.70
2022-10-25T00:55:52.020Z,10.70
2022-10-25T01:01:03.065Z,10.70
2022-10-25T01:05:06.612Z,10.70
2022-10-25T01:09:11.938Z,10.70
2022-10-25T01:13:14.102Z,10.80
2022-10-25T01:17:33.755Z,10.80
2022-10-25T01:21:47.515Z,10.80
2022-10-25T01:26:31.909Z,10.80
2022-10-25T01:31:00.837Z,10.80
2022-10-25T01:35:03.862Z,10.80
2022-10-25T01:39:51.372Z,10.80
2022-10-25T01:44:27.128Z,10.80
2022-10-25T01:49:05.376Z,10.80
2022-10-25T01:53:07.278Z,10.80
2022-10-25T02:02:57.475Z,10.80
2022-10-25T02:07:25.008Z,10.70
2022-10-25T02:11:29.921Z,10.70
2022-10-25T02:16:17.513Z,10.70
2022-10-25T02:20:24.645Z,10.70
2022-10-25T02:24:30.726Z,10.70
2022-10-25T02:28:34.601Z,10.70
2022-10-25T02:32:36.968Z,10.60
2022-10-25T02:36:39.086Z,10.70
2022-10-25T02:40:48.133Z,10.60
2022-10-25T02:44:50.145Z,10.70
2022-10-25T02:48:56.344Z,10.70
2022-10-25T02:52:58.270Z,10.80
2022-10-25T02:57:00.178Z,10.80
2022-10-25T03:07:01.056Z,10.90
2022-10-25T03:11:04.344Z,10.90
2022-10-25T03:15:59.749Z,10.90
2022-10-25T03:20:01.850Z,11.00
2022-10-25T03:24:16.151Z,11.00
2022-10-25T03:28:46.110Z,11.10
2022-10-25T03:33:20.272Z,11.20
2022-10-25T03:38:12.458Z,11.20
2022-10-25T03:42:39.707Z,11.10
2022-10-25T03:46:41.614Z,11.10
2022-10-25T03:51:19.719Z,11.10
2022-10-25T03:56:12.669Z,11.00
2022-10-25T04:00:42.849Z,11.00
2022-10-25T04:04:44.777Z,11.00
2022-10-25T04:09:16.071Z,10.90
2022-10-25T04:14:00.792Z,10.90
2022-10-25T04:18:02.732Z,10.90
2022-10-25T04:22:06.660Z,10.80
2022-10-25T04:26:17.346Z,10.80
2022-10-25T04:30:19.931Z,10.80
2022-10-25T04:34:21.783Z,10.70
2022-10-25T04:44:16.967Z,10.70
2022-10-25T04:48:19.021Z,10.70
2022-10-25T04:52:21.716Z,10.70
2022-10-25T04:56:34.107Z,10.60
2022-10-25T05:00:36.090Z,10.60
2022-10-25T05:04:37.975Z,10.60
2022-10-25T05:09:41.723Z,10.60
2022-10-25T05:14:11.883Z,10.50
2022-10-25T05:18:13.746Z,10.50
2022-10-25T05:22:15.931Z,10.50
2022-10-25T05:26:21.057Z,10.40
2022-10-25T05:30:23.123Z,10.40
2022-10-25T05:34:31.463Z,10.30
2022-10-25T05:50:01.792Z,10.20
2022-10-25T05:54:11.106Z,10.10
2022-10-25T05:58:14.141Z,10.10
2022-10-25T06:02:16.195Z,10.10
2022-10-25T06:06:18.679Z,10.10
2022-10-25T06:10:21.788Z,10.20
2022-10-25T06:14:38.059Z,10.30
2022-10-25T06:18:40.121Z,10.40
2022-10-25T06:23:01.364Z,10.50
2022-10-25T06:27:30.776Z,10.70
2022-10-25T06:31:49.945Z,10.80
2022-10-25T06:36:01.868Z,10.90
2022-10-25T06:40:14.335Z,11.00
2022-10-25T06:45:21.195Z,11.10
2022-10-25T06:50:18.937Z,11.30
2022-10-25T06:55:16.924Z,11.40
2022-10-25T06:59:46.041Z,11.50
2022-10-25T07:04:11.971Z,11.70
2022-10-25T07:08:14.134Z,11.80
2022-10-25T07:12:18.391Z,11.90
2022-10-25T07:16:21.683Z,11.90
2022-10-25T07:20:48.451Z,12.00
2022-10-25T07:24:50.421Z,12.10
2022-10-25T07:28:54.199Z,12.20
2022-10-25T07:33:21.880Z,12.30
2022-10-25T07:37:28.967Z,12.40
2022-10-25T07:41:35.845Z,12.50
2022-10-25T07:45:38.750Z,12.60
2022-10-25T07:50:39.837Z,12.70
2022-10-25T07:54:46.182Z,12.80
2022-10-25T07:59:06.716Z,12.90
2022-10-25T08:03:09.887Z,13.00
2022-10-25T08:07:19.990Z,13.20
2022-10-25T08:12:13.805Z,13.30
2022-10-25T08:16:16.973Z,13.40
2022-10-25T08:20:19.914Z,13.40
2022-10-25T08:24:21.877Z,13.50
2022-10-25T08:28:33.002Z,13.50
2022-10-25T08:38:34.800Z,13.60
2022-10-25T08:43:05.892Z,13.60
2022-10-25T08:47:29.798Z,13.70
2022-10-25T08:51:47.748Z,13.80
2022-10-25T08:57:10.765Z,13.90
2022-10-25T09:01:45.338Z,13.90
2022-10-25T09:06:05.736Z,14.00
2022-10-25T09:10:11.067Z,14.10
2022-10-25T09:14:51.669Z,14.20
2022-10-25T09:19:34.309Z,14.30
2022-10-25T09:24:13.804Z,14.40
2022-10-25T09:28:25.558Z,14.50
2022-10-25T09:32:56.879Z,14.70
2022-10-25T09:37:56.423Z,14.80
2022-10-25T09:42:34.551Z,14.80
2022-10-25T09:46:57.787Z,14.80
2022-10-25T09:51:39.890Z,14.80
2022-10-25T09:56:00.418Z,14.80
2022-10-25T10:00:05.801Z,14.80
2022-10-25T10:04:37.112Z,14.90
2022-10-25T10:09:10.611Z,15.10
2022-10-25T10:13:37.200Z,15.20
2022-10-25T10:18:29.688Z,15.30
2022-10-25T10:22:31.645Z,15.20
2022-10-25T10:27:15.924Z,15.30
2022-10-25T10:31:19.998Z,15.40
2022-10-25T10:42:21.929Z,15.60
2022-10-25T10:52:39.877Z,15.40
2022-10-25T10:56:53.761Z,15.40
2022-10-25T11:01:14.619Z,15.50
2022-10-25T11:06:18.700Z,15.50
2022-10-25T11:10:25.490Z,15.50
2022-10-25T11:14:33.773Z,15.50
2022-10-25T11:19:02.905Z,15.60
2022-10-25T11:23:07.995Z,15.70
2022-10-25T11:27:09.817Z,15.80
2022-10-25T11:31:51.692Z,15.90
2022-10-25T11:36:21.573Z,16.00
2022-10-25T11:40:59.032Z,15.80
2022-10-25T11:45:32.426Z,15.40
2022-10-25T11:49:57.295Z,15.20
2022-10-25T11:55:13.107Z,14.90
2022-10-25T11:59:18.289Z,15.00
2022-10-25T12:03:44.923Z,15.00
2022-10-25T12:08:11.739Z,15.00
2022-10-25T12:12:20.634Z,14.90
2022-10-25T12:16:24.670Z,15.20
2022-10-25T12:20:29.025Z,15.20
2022-10-25T12:25:33.332Z,15.30
2022-10-25T12:29:58.442Z,15.40
2022-10-25T12:34:41.163Z,15.50
2022-10-25T12:38:43.126Z,15.70
2022-10-25T12:42:49.787Z,15.90
2022-10-25T12:47:29.221Z,16.10
2022-10-25T12:52:21.645Z,16.30
2022-10-25T12:56:47.796Z,16.40
2022-10-25T13:00:52.805Z,16.50
2022-10-25T13:05:19.742Z,16.60
2022-10-25T13:09:31.491Z,16.80
2022-10-25T13:13:39.205Z,16.80
2022-10-25T13:17:41.144Z,16.90
2022-10-25T13:22:27.982Z,17.20
2022-10-25T13:27:13.120Z,17.20
2022-10-25T13:31:47.281Z,17.20
2022-10-25T13:36:15.166Z,17.00
2022-10-25T13:40:31.625Z,17.00
2022-10-25T13:44:34.654Z,16.80
2022-10-25T13:48:41.310Z,16.70
2022-10-25T13:57:51.339Z,17.00
2022-10-25T14:01:53.829Z,17.20
2022-10-25T14:06:28.771Z,17.40
2022-10-25T14:10:35.643Z,17.60
2022-10-25T14:15:45.728Z,17.70
2022-10-25T14:19:55.338Z,17.50
2022-10-25T14:25:12.600Z,17.40
2022-10-25T14:29:21.254Z,17.30
2022-10-25T14:33:28.830Z,17.20
2022-10-25T14:37:30.913Z,17.20
2022-10-25T14:41:54.192Z,17.10
2022-10-25T14:46:35.095Z,16.90
2022-10-25T14:50:37.930Z,16.70
2022-10-25T14:55:08.233Z,16.50
2022-10-25T14:59:48.503Z,16.30
2022-10-25T15:04:16.040Z,16.10
2022-10-25T15:08:21.358Z,15.90
2022-10-25T15:12:52.291Z,15.80
2022-10-25T15:17:30.002Z,15.60
2022-10-25T15:22:17.090Z,15.30
2022-10-25T15:26:30.366Z,15.10
2022-10-25T15:30:50.478Z,15.00
2022-10-25T15:35:22.303Z,14.80
2022-10-25T15:39:48.099Z,14.60
2022-10-25T15:43:55.613Z,14.40
2022-10-25T15:48:03.994Z,14.30
2022-10-25T15:53:05.101Z,14.20
2022-10-25T15:57:34.923Z,14.00
2022-10-25T16:01:43.606Z,13.80
2022-10-25T16:05:45.873Z,13.70
2022-10-25T16:10:07.391Z,13.60
2022-10-25T16:14:22.753Z,13.50
2022-10-25T16:18:36.100Z,13.40
2022-10-25T16:22:38.194Z,13.30
2022-10-25T16:27:06.282Z,13.20
2022-10-25T16:31:24.665Z,13.20
2022-10-25T16:42:15.695Z,12.90
2022-10-25T16:46:17.994Z,12.80
2022-10-25T16:50:23.730Z,12.70
2022-10-25T16:54:25.898Z,12.60
2022-10-25T17:10:20.467Z,12.20
2022-10-25T17:14:48.894Z,12.10
2022-10-25T17:18:50.741Z,12.00
2022-10-25T17:22:54.381Z,12.00
2022-10-25T17:26:56.500Z,11.90
2022-10-25T17:30:58.785Z,11.80
2022-10-25T17:35:28.595Z,11.80
2022-10-25T17:39:32.709Z,11.70
2022-10-25T17:44:16.890Z,11.70
2022-10-25T17:48:45.031Z,11.60
2022-10-25T17:52:46.927Z,11.50
2022-10-25T17:56:48.893Z,11.50
2022-10-25T18:00:51.221Z,11.50
2022-10-25T18:05:21.142Z,11.50
2022-10-25T18:09:23.439Z,11.50
2022-10-25T18:14:41.651Z,11.50
2022-10-25T18:19:11.422Z,11.40
2022-10-25T18:23:13.951Z,11.40
2022-10-25T18:27:16.956Z,11.40
2022-10-25T18:31:20.591Z,11.40
2022-10-25T18:35:22.495Z,11.30
2022-10-25T18:39:26.946Z,11.30
2022-10-25T18:43:55.032Z,11.20
2022-10-25T18:48:19.854Z,11.20
2022-10-25T18:52:46.726Z,11.10
2022-10-25T18:57:07.007Z,11.10
2022-10-25T19:01:16.708Z,11.10
2022-10-25T19:05:23.965Z,11.10
2022-10-25T19:10:16.647Z,11.00
2022-10-25T19:14:19.705Z,10.90
2022-10-25T19:18:24.453Z,10.90
2022-10-25T19:23:17.646Z,10.80
2022-10-25T19:27:24.224Z,10.80
2022-10-25T19:31:28.000Z,10.70
2022-10-25T19:36:20.056Z,10.70
2022-10-25T19:41:35.657Z,10.60
2022-10-25T19:45:41.969Z,10.50
2022-10-25T19:55:15.400Z,10.40
2022-10-25T19:59:43.163Z,10.30
2022-10-25T20:03:46.385Z,10.30
2022-10-25T20:07:53.117Z,10.20
2022-10-25T20:12:03.239Z,10.10
2022-10-25T20:16:06.279Z,10.10
2022-10-25T20:20:08.941Z,10.10
2022-10-25T20:24:11.135Z,10.10
2022-10-25T20:28:33.529Z,10.10
2022-10-25T20:32:40.145Z,10.10
2022-10-25T20:36:50.161Z,10.10
2022-10-25T20:40:52.575Z,10.10
2022-10-25T20:45:07.029Z,10.10
2022-10-25T20:50:11.029Z,10.00
2022-10-25T20:54:40.835Z,10.00
2022-10-25T20:59:14.116Z,9.90
2022-10-25T21:04:16.139Z,9.90
2022-10-25T21:08:23.001Z,9.80
2022-10-25T21:12:27.207Z,9.80
2022-10-25T21:16:31.329Z,9.80
2022-10-25T21:20:48.179Z,9.80
2022-10-25T21:24:50.118Z,9.70
2022-10-25T21:28:59.649Z,9.70
2022-10-25T21:33:03.530Z,9.60
2022-10-25T21:37:14.400Z,9.60
2022-10-25T21:41:20.883Z,9.60
2022-10-25T21:45:23.985Z,9.60
2022-10-25T21:49:26.088Z,9.60
2022-10-25T21:53:28.725Z,9.60
2022-10-25T21:57:30.969Z,9.60
2022-10-25T22:01:40.406Z,9.60
2022-10-25T22:05:43.932Z,9.60
2022-10-25T22:09:46.192Z,9.50
2022-10-25T22:13:48.519Z,9.50
2022-10-25T22:17:51.580Z,9.50
2022-10-25T22:21:53.586Z,9.50
2022-10-25T22:26:02.890Z,9.40
2022-10-25T22:30:07.741Z,9.50
2022-10-25T22:34:19.139Z,9.50
2022-10-25T22:38:23.073Z,9.40
2022-10-25T22:42:25.450Z,9.40
2022-10-25T22:46:30.423Z,9.40
2022-10-25T22:50:39.613Z,9.30
2022-10-25T22:54:41.515Z,9.30
2022-10-25T22:58:50.970Z,9.30
2022-10-25T23:02:53.753Z,9.30
2022-10-25T23:07:01.816Z,9.30
2022-10-25T23:11:09.988Z,9.30
2022-10-25T23:15:14.141Z,9.30
2022-10-25T23:19:16.190Z,9.30
2022-10-25T23:23:20.896Z,9.20
2022-10-25T23:27:51.179Z,9.20
2022-10-25T23:32:06.582Z,9.20
2022-10-25T23:36:16.484Z,9.20
2022-10-25T23:40:21.740Z,9.10
2022-10-25T23:44:27.150Z,9.10
2022-10-25T23:48:33.708Z,9.10
2022-10-25T23:52:41.315Z,9.10
2022-10-25T23:57:07.390Z,9.10
